.
WxDataArchive / Data Records for 2007-02-25
2007-02-24 February 2007 2007-02-26

Data Records for Sunday, 25 February 2007

Time	Temp	Chill	HIndex	Humid	Dewpt	 Wind 	HiWind	WindDir	Rain 	Barom 
-----	----	-----	------	-----	-----	------	------	-------	-----	----- 
00:00	27.0	22.3	27.0	85	23.1	4	9	90	0.00	29.946 
00:05	27.2	21.4	27.2	86	23.6	5	9	112	0.00	29.944 
00:10	27.5	21.8	27.5	86	23.9	5	13	112	0.00	29.942 
00:15	27.5	19.4	27.5	86	23.9	8	14	90	0.00	29.927 
00:20	27.6	20.2	27.6	86	24.0	7	12	90	0.00	29.926 
00:25	27.8	19.7	27.8	86	24.2	8	14	90	0.01	29.917 
00:30	27.8	19.1	27.8	86	24.2	9	14	112	0.00	29.908 
00:35	27.9	20.6	27.9	88	24.8	7	15	90	0.00	29.904 
00:40	28.2	20.9	28.2	88	25.1	7	16	112	0.00	29.892 
00:45	28.4	21.9	28.4	89	25.6	6	11	112	0.00	29.878 
00:50	28.4	28.4	28.4	89	25.6	0	4	112	0.00	29.878 
00:55	28.2	28.2	28.2	89	25.4	0	0	---	0.00	29.866 
01:00	28.2	28.2	28.2	90	25.7	0	0	---	0.00	29.863 
01:05	28.4	28.4	28.4	90	25.8	0	0	---	0.00	29.854 
01:10	28.2	28.2	28.2	89	25.4	0	0	---	0.00	29.853 
01:15	28.4	28.4	28.4	90	25.8	0	0	---	0.00	29.852 
01:20	28.5	28.5	28.5	90	25.9	0	0	---	0.00	29.846 
01:25	28.8	28.8	28.8	90	26.2	0	0	---	0.00	29.846 
01:30	29.0	29.0	29.0	91	26.7	0	0	---	0.00	29.835 
01:35	29.3	29.3	29.3	91	27.0	0	0	---	0.00	29.832 
01:40	29.3	29.3	29.3	91	27.0	0	0	---	0.00	29.831 
01:45	29.3	29.3	29.3	91	27.0	0	0	---	0.00	29.825 
01:50	29.4	29.4	29.4	91	27.1	0	0	---	0.00	29.826 
01:55	29.7	29.7	29.7	92	27.7	0	0	---	0.00	29.817 
02:00	29.7	29.7	29.7	92	27.7	0	0	---	0.00	29.808 
02:05	29.8	29.8	29.8	92	27.8	0	0	---	0.00	29.809 
02:10	30.0	30.0	30.0	92	28.0	0	0	---	0.00	29.808 
02:15	30.1	30.1	30.1	92	28.1	0	0	---	0.00	29.798 
02:20	30.3	30.3	30.3	92	28.3	0	0	---	0.00	29.791 
02:25	30.4	30.4	30.4	92	28.4	0	0	---	0.00	29.781 
02:30	30.6	30.6	30.6	92	28.6	0	0	---	0.00	29.784 
02:35	30.6	30.6	30.6	92	28.6	0	0	---	0.00	29.780 
02:40	30.7	30.7	30.7	93	28.9	0	0	---	0.00	29.776 
02:45	30.7	30.7	30.7	93	28.9	0	0	---	0.00	29.761 
02:50	30.9	30.9	30.9	93	29.1	0	0	---	0.00	29.751 
02:55	31.2	31.2	31.2	93	29.4	0	0	---	0.00	29.747 
03:00	31.3	31.3	31.3	93	29.5	0	0	---	0.00	29.725 
03:05	31.5	31.5	31.5	93	29.7	0	0	---	0.00	29.732 
03:10	31.5	31.5	31.5	93	29.7	0	0	---	0.00	29.718 
03:15	31.5	31.5	31.5	93	29.7	0	0	---	0.00	29.727 
03:20	31.5	31.5	31.5	93	29.7	0	0	---	0.00	29.717 
03:25	31.5	31.5	31.5	93	29.7	0	0	---	0.00	29.714 
03:30	31.6	31.6	31.6	93	29.8	0	0	---	0.00	29.703 
03:35	31.6	31.6	31.6	93	29.8	0	0	---	0.00	29.701 
03:40	31.8	31.8	31.8	93	30.0	0	0	---	0.00	29.702 
03:45	31.9	31.9	31.9	94	30.4	0	0	---	0.00	29.695 
03:50	32.1	32.1	32.1	94	30.6	0	0	---	0.00	29.697 
03:55	32.2	32.2	32.2	94	30.7	0	0	---	0.00	29.693 
04:00	32.4	32.4	32.4	94	30.9	0	0	---	0.00	29.686 
04:05	32.5	32.5	32.5	94	31.0	0	0	---	0.00	29.685 
04:10	32.7	32.7	32.7	94	31.2	0	0	---	0.00	29.685 
04:15	32.9	32.9	32.9	94	31.4	0	0	---	0.00	29.684 
04:20	33.1	33.1	33.1	94	31.6	0	0	---	0.00	29.682 
04:25	33.4	33.4	33.4	94	31.9	0	0	---	0.00	29.674 
04:30	33.4	33.4	33.4	94	31.9	0	0	---	0.00	29.670 
04:35	33.5	33.5	33.5	94	32.0	0	0	---	0.00	29.670 
04:40	33.5	33.5	33.5	94	32.0	0	0	---	0.00	29.666 
04:45	33.5	33.5	33.5	94	32.0	0	0	---	0.00	29.666 
04:50	33.5	33.5	33.5	94	32.0	0	0	---	0.00	29.659 
04:55	33.7	33.7	33.7	94	32.2	0	0	---	0.00	29.655 
05:00	33.7	33.7	33.7	94	32.2	0	0	---	0.00	29.652 
05:05	33.8	33.8	33.8	94	32.3	0	0	---	0.00	29.653 
05:10	33.8	33.8	33.8	94	32.3	0	0	---	0.00	29.652 
05:15	34.0	34.0	34.0	94	32.5	0	0	---	0.00	29.649 
05:20	34.0	34.0	34.0	93	32.2	0	0	---	0.00	29.646 
05:25	34.1	34.1	34.1	93	32.3	0	0	---	0.00	29.646 
05:30	34.1	34.1	34.1	93	32.3	0	0	---	0.00	29.650 
05:35	34.1	34.1	34.1	93	32.3	0	0	---	0.00	29.648 
05:40	34.3	34.3	34.3	93	32.5	0	0	---	0.00	29.639 
05:45	34.4	34.4	34.4	93	32.6	0	0	---	0.00	29.638 
05:50	34.4	34.4	34.4	93	32.6	0	0	---	0.00	29.636 
05:55	34.4	34.4	34.4	93	32.6	0	0	---	0.00	29.633 
06:00	34.4	34.4	34.4	93	32.6	0	0	---	0.00	29.633 
06:05	34.6	34.6	34.6	93	32.8	0	0	---	0.00	29.632 
06:10	34.6	34.6	34.6	93	32.8	0	0	---	0.00	29.620 
06:15	34.7	34.7	34.7	93	32.9	2	10	112	0.00	29.616 
06:20	34.7	29.4	34.7	93	32.9	6	11	112	0.00	29.615 
06:25	34.9	29.7	34.9	93	33.1	6	11	90	0.00	29.607 
06:30	34.9	30.5	34.9	93	33.1	5	9	112	0.00	29.606 
06:35	35.0	29.8	35.0	93	33.2	6	11	112	0.00	29.604 
06:40	35.2	30.0	35.2	93	33.4	6	11	112	0.00	29.605 
06:45	35.2	30.0	35.2	92	33.1	6	11	90	0.00	29.602 
06:50	35.3	31.0	35.3	92	33.2	5	10	112	0.00	29.600 
06:55	35.3	29.5	35.3	92	33.2	7	12	112	0.00	29.598 
07:00	35.3	31.0	35.3	92	33.2	5	10	112	0.00	29.598 
07:05	35.3	30.2	35.3	92	33.2	6	11	112	0.00	29.594 
07:10	35.3	31.0	35.3	92	33.2	5	10	112	0.00	29.592 
07:15	35.3	31.0	35.3	92	33.2	5	10	112	0.00	29.590 
07:20	35.3	31.0	35.3	92	33.2	5	9	112	0.00	29.588 
07:25	35.3	30.2	35.3	92	33.2	6	10	112	0.00	29.588 
07:30	35.3	31.0	35.3	92	33.2	5	8	112	0.00	29.589 
07:35	35.3	31.0	35.3	92	33.2	5	9	112	0.00	29.587 
07:40	35.5	31.2	35.5	92	33.4	5	9	112	0.00	29.584 
07:45	35.5	31.2	35.5	91	33.1	5	9	112	0.00	29.574 
07:50	35.5	32.1	35.5	91	33.1	4	7	112	0.00	29.578 
07:55	35.5	32.1	35.5	91	33.1	4	7	112	0.00	29.577 
08:00	35.5	32.1	35.5	91	33.1	4	9	112	0.00	29.577 
08:05	35.5	32.1	35.5	91	33.1	4	9	112	0.00	29.578 
08:10	35.5	32.1	35.5	91	33.1	4	7	90	0.00	29.576 
08:15	35.5	35.5	35.5	91	33.1	2	5	90	0.00	29.577 
08:20	35.5	35.5	35.5	91	33.1	2	4	112	0.00	29.577 
08:25	35.5	35.5	35.5	90	32.9	3	6	90	0.00	29.578 
08:30	35.5	35.5	35.5	90	32.9	3	6	112	0.00	29.581 
08:35	35.5	35.5	35.5	90	32.9	3	6	112	0.00	29.577 
08:40	35.5	35.5	35.5	90	32.9	3	5	112	0.00	29.581 
08:45	35.5	35.5	35.5	90	32.9	2	4	90	0.00	29.580 
08:50	35.5	35.5	35.5	89	32.6	2	4	90	0.00	29.577 
08:55	35.6	35.6	35.6	89	32.7	3	6	112	0.00	29.575 
09:00	35.6	35.6	35.6	89	32.7	3	4	112	0.00	29.573 
09:05	35.9	35.9	35.9	88	32.7	3	6	112	0.00	29.570 
09:10	36.0	32.7	36.0	87	32.5	4	9	112	0.01	29.565 
09:15	36.2	32.0	36.2	87	32.7	5	9	112	0.00	29.560 
09:20	36.3	36.3	36.3	86	32.5	3	7	112	0.00	29.561 
09:25	36.3	36.3	36.3	86	32.5	3	7	90	0.00	29.561 
09:30	36.3	36.3	36.3	86	32.5	3	7	112	0.00	29.558 
09:35	36.2	32.9	36.2	86	32.4	4	7	112	0.00	29.557 
09:40	36.0	36.0	36.0	86	32.2	3	5	90	0.00	29.558 
09:45	36.0	36.0	36.0	86	32.2	3	6	90	0.00	29.558 
09:50	36.0	36.0	36.0	86	32.2	3	6	90	0.00	29.556 
09:55	36.0	36.0	36.0	86	32.2	3	7	112	0.00	29.553 
10:00	36.0	36.0	36.0	86	32.2	3	6	112	0.00	29.547 
10:05	36.0	36.0	36.0	86	32.2	3	9	112	0.00	29.545 
10:10	36.2	36.2	36.2	85	32.1	3	5	90	0.00	29.541 
10:15	36.2	36.2	36.2	85	32.1	3	6	90	0.00	29.541 
10:20	36.3	33.0	36.3	85	32.2	4	7	112	0.00	29.540 
10:25	36.5	36.5	36.5	85	32.4	3	7	112	0.00	29.534 
10:30	36.5	36.5	36.5	85	32.4	3	6	90	0.00	29.529 
10:35	36.3	36.3	36.3	85	32.2	3	6	112	0.00	29.527 
10:40	36.5	36.5	36.5	85	32.4	3	5	112	0.00	29.526 
10:45	36.5	36.5	36.5	85	32.4	3	5	90	0.00	29.524 
10:50	36.8	36.8	36.8	84	32.4	3	6	90	0.00	29.523 
10:55	36.8	33.6	36.8	84	32.4	4	6	112	0.00	29.519 
11:00	36.9	33.7	36.9	84	32.5	4	6	90	0.00	29.511 
11:05	37.2	37.2	37.2	84	32.8	3	6	90	0.00	29.510 
11:10	37.2	37.2	37.2	83	32.5	2	5	112	0.01	29.511 
11:15	37.2	37.2	37.2	83	32.5	2	5	112	0.00	29.509 
11:20	37.3	37.3	37.3	83	32.6	2	5	112	0.01	29.509 
11:25	37.5	37.5	37.5	83	32.8	3	9	112	0.00	29.507 
11:30	37.6	37.6	37.6	82	32.6	2	5	112	0.00	29.506 
11:35	37.8	37.8	37.8	82	32.8	2	4	112	0.00	29.506 
11:40	37.8	37.8	37.8	83	33.1	1	4	112	0.01	29.506 
11:45	37.8	37.8	37.8	83	33.1	2	3	90	0.00	29.503 
11:50	37.8	37.8	37.8	83	33.1	2	3	90	0.00	29.500 
11:55	37.8	37.8	37.8	84	33.4	2	4	112	0.00	29.497 
12:00	37.9	37.9	37.9	83	33.2	1	3	112	0.00	29.494 
12:05	38.0	38.0	38.0	83	33.3	1	3	112	0.00	29.490 
12:10	38.5	38.5	38.5	83	33.8	2	4	112	0.01	29.485 
12:15	38.9	38.9	38.9	83	34.2	1	3	112	0.00	29.484 
12:20	39.2	39.2	39.2	82	34.2	2	4	112	0.00	29.481 
12:25	39.3	39.3	39.3	82	34.3	1	4	112	0.00	29.479 
12:30	39.3	39.3	39.3	83	34.6	2	4	158	0.00	29.478 
12:35	39.3	39.3	39.3	83	34.6	1	4	112	0.01	29.478 
12:40	39.3	39.3	39.3	83	34.6	1	4	112	0.00	29.476 
12:45	39.6	39.6	39.6	83	34.9	1	3	135	0.00	29.472 
12:50	39.8	39.8	39.8	83	35.1	2	4	90	0.00	29.471 
12:55	40.1	40.1	40.1	83	35.4	2	4	112	0.00	29.469 
13:00	40.5	40.5	40.5	82	35.4	2	5	112	0.00	29.465 
13:05	40.9	40.9	40.9	81	35.5	2	5	90	0.00	29.460 
13:10	41.1	41.1	41.1	81	35.7	2	7	135	0.01	29.457 
13:15	41.2	41.2	41.2	81	35.8	3	6	135	0.00	29.456 
13:20	41.1	41.1	41.1	81	35.7	3	7	90	0.00	29.455 
13:25	41.1	41.1	41.1	81	35.7	2	5	112	0.00	29.455 
13:30	41.1	41.1	41.1	81	35.7	3	8	112	0.00	29.453 
13:35	41.1	41.1	41.1	81	35.7	2	4	112	0.00	29.451 
13:40	41.2	41.2	41.2	81	35.8	2	6	135	0.00	29.451 
13:45	41.3	41.3	41.3	80	35.6	2	5	135	0.00	29.447 
13:50	41.3	41.3	41.3	80	35.6	1	3	112	0.00	29.448 
13:55	41.3	41.3	41.3	80	35.6	2	5	135	0.00	29.446 
14:00	41.2	41.2	41.2	81	35.8	1	3	112	0.01	29.442 
14:05	41.2	41.2	41.2	81	35.8	1	4	90	0.00	29.441 
14:10	41.3	41.3	41.3	81	35.9	1	3	112	0.00	29.440 
14:15	41.5	41.5	41.5	81	36.1	2	6	112	0.00	29.440 
14:20	41.5	41.5	41.5	81	36.1	2	5	112	0.00	29.440 
14:25	41.5	41.5	41.5	81	36.1	1	3	112	0.00	29.440 
14:30	41.6	41.6	41.6	80	35.9	2	4	112	0.00	29.440 
14:35	41.6	41.6	41.6	81	36.2	1	4	112	0.00	29.439 
14:40	41.6	41.6	41.6	80	35.9	2	4	112	0.00	29.439 
14:45	41.6	41.6	41.6	81	36.2	2	5	135	0.00	29.438 
14:50	41.6	41.6	41.6	81	36.2	1	4	112	0.00	29.438 
14:55	41.5	41.5	41.5	80	35.8	2	4	112	0.00	29.438 
15:00	41.3	41.3	41.3	81	35.9	1	3	135	0.00	29.439 
15:05	41.3	41.3	41.3	81	35.9	1	4	135	0.00	29.438 
15:10	41.3	41.3	41.3	81	35.9	1	3	270	0.00	29.441 
15:15	41.2	41.2	41.2	82	36.1	1	3	90	0.00	29.446 
15:20	41.1	41.1	41.1	82	36.0	0	2	90	0.00	29.450 
15:25	40.9	40.9	40.9	82	35.8	0	2	90	0.00	29.451 
15:30	41.1	41.1	41.1	83	36.3	0	1	90	0.00	29.450 
15:35	41.2	41.2	41.2	83	36.4	1	4	90	0.00	29.449 
15:40	41.3	41.3	41.3	83	36.5	1	2	338	0.00	29.449 
15:45	41.5	41.5	41.5	83	36.7	1	4	270	0.00	29.449 
15:50	41.5	41.5	41.5	83	36.7	1	5	225	0.00	29.450 
15:55	41.5	41.5	41.5	84	37.0	1	5	248	0.00	29.450 
16:00	41.5	41.5	41.5	84	37.0	1	3	158	0.00	29.451 
16:05	41.5	41.5	41.5	84	37.0	1	3	90	0.00	29.450 
16:10	41.5	41.5	41.5	84	37.0	0	2	338	0.00	29.450 
16:15	41.6	41.6	41.6	84	37.1	1	4	158	0.00	29.450 
16:20	41.8	41.8	41.8	84	37.3	0	2	90	0.00	29.452 
16:25	41.8	41.8	41.8	84	37.3	0	2	90	0.00	29.453 
16:30	41.6	41.6	41.6	84	37.1	0	1	90	0.00	29.452 
16:35	41.5	41.5	41.5	84	37.0	0	2	45	0.00	29.453 
16:40	41.2	41.2	41.2	84	36.7	0	1	45	0.00	29.457 
16:45	41.1	41.1	41.1	84	36.6	0	1	45	0.00	29.459 
16:50	40.9	40.9	40.9	85	36.7	0	2	45	0.00	29.461 
16:55	40.9	40.9	40.9	86	37.0	0	2	270	0.00	29.462 
17:00	40.9	40.9	40.9	86	37.0	1	3	248	0.00	29.464 
17:05	41.1	41.1	41.1	87	37.5	1	5	248	0.00	29.466 
17:10	41.3	38.8	41.3	87	37.7	4	12	248	0.00	29.468 
17:15	41.3	38.0	41.3	86	37.4	5	11	270	0.00	29.475 
17:20	40.2	36.7	40.2	80	34.5	5	10	270	0.00	29.484 
17:25	38.2	33.0	38.2	77	31.6	7	14	270	0.00	29.496 
17:30	36.8	32.7	36.8	79	30.9	5	10	270	0.00	29.502 
17:35	36.2	32.0	36.2	81	30.9	5	13	270	0.00	29.503 
17:40	35.9	32.6	35.9	82	31.0	4	9	270	0.00	29.504 
17:45	35.8	32.5	35.8	82	30.9	4	10	270	0.00	29.506 
17:50	35.6	35.6	35.6	83	31.0	3	6	270	0.00	29.509 
17:55	35.6	35.6	35.6	83	31.0	3	10	270	0.00	29.513 
18:00	35.6	35.6	35.6	83	31.0	2	6	270	0.00	29.519 
18:05	35.5	35.5	35.5	84	31.2	2	11	270	0.00	29.519 
18:10	35.5	35.5	35.5	84	31.2	2	10	270	0.00	29.521 
18:15	35.5	35.5	35.5	84	31.2	3	10	248	0.00	29.524 
18:20	35.5	35.5	35.5	84	31.2	2	6	270	0.00	29.525 
18:25	35.3	35.3	35.3	85	31.2	2	5	248	0.00	29.530 
18:30	35.2	35.2	35.2	86	31.4	3	9	270	0.00	29.532 
18:35	35.0	35.0	35.0	86	31.2	3	5	270	0.00	29.533 
18:40	35.0	35.0	35.0	87	31.5	2	6	248	0.00	29.533 
18:45	34.9	34.9	34.9	88	31.7	1	4	248	0.00	29.535 
18:50	34.7	34.7	34.7	88	31.5	2	7	248	0.00	29.535 
18:55	34.7	34.7	34.7	88	31.5	3	9	270	0.00	29.538 
19:00	34.6	34.6	34.6	88	31.4	3	10	270	0.00	29.542 
19:05	34.4	34.4	34.4	89	31.5	3	7	248	0.00	29.544 
19:10	34.3	34.3	34.3	90	31.7	2	7	248	0.00	29.546 
19:15	34.3	34.3	34.3	90	31.7	2	6	248	0.00	29.548 
19:20	34.1	34.1	34.1	90	31.5	2	5	248	0.00	29.549 
19:25	34.1	34.1	34.1	91	31.8	2	5	248	0.00	29.551 
19:30	34.1	34.1	34.1	91	31.8	1	3	248	0.00	29.551 
19:35	34.1	34.1	34.1	92	32.0	2	5	248	0.00	29.550 
19:40	34.1	34.1	34.1	92	32.0	3	7	248	0.00	29.550 
19:45	34.1	34.1	34.1	91	31.8	3	8	248	0.00	29.551 
19:50	34.1	34.1	34.1	90	31.5	3	9	248	0.00	29.553 
19:55	34.3	30.7	34.3	89	31.4	4	11	248	0.00	29.555 
20:00	34.3	30.7	34.3	89	31.4	4	10	248	0.00	29.557 
20:05	34.3	34.3	34.3	89	31.4	3	6	248	0.00	29.558 
20:10	34.3	34.3	34.3	89	31.4	2	5	248	0.00	29.559 
20:15	34.3	30.7	34.3	88	31.1	4	9	248	0.00	29.560 
20:20	34.3	34.3	34.3	88	31.1	3	8	248	0.00	29.560 
20:25	34.3	34.3	34.3	88	31.1	3	7	248	0.00	29.562 
20:30	34.3	34.3	34.3	87	30.8	3	11	248	0.00	29.563 
20:35	34.1	34.1	34.1	87	30.6	3	6	248	0.00	29.564 
20:40	34.1	34.1	34.1	87	30.6	3	7	248	0.00	29.564 
20:45	34.1	34.1	34.1	87	30.6	3	8	248	0.00	29.565 
20:50	34.1	34.1	34.1	86	30.4	3	11	248	0.00	29.564 
20:55	34.1	34.1	34.1	86	30.4	3	9	248	0.00	29.564 
21:00	34.1	34.1	34.1	85	30.1	3	6	248	0.00	29.566 
21:05	34.0	34.0	34.0	85	30.0	2	6	248	0.00	29.566 
21:10	34.0	34.0	34.0	85	30.0	3	11	248	0.00	29.566 
21:15	34.0	30.4	34.0	85	30.0	4	10	248	0.00	29.567 
21:20	34.0	34.0	34.0	85	30.0	2	6	225	0.00	29.566 
21:25	34.0	34.0	34.0	84	29.7	3	9	248	0.00	29.567 
21:30	33.8	33.8	33.8	84	29.5	2	5	248	0.00	29.568 
21:35	34.0	34.0	34.0	83	29.4	3	10	248	0.00	29.569 
21:40	34.0	30.4	34.0	80	28.5	4	9	248	0.00	29.572 
21:45	34.1	34.1	34.1	79	28.3	3	11	248	0.00	29.571 
21:50	34.1	30.5	34.1	78	28.0	4	9	248	0.00	29.573 
21:55	34.1	34.1	34.1	78	28.0	3	9	248	0.00	29.572 
22:00	34.1	29.5	34.1	78	28.0	5	11	248	0.00	29.571 
22:05	34.1	30.5	34.1	78	28.0	4	10	270	0.00	29.572 
22:10	34.1	30.5	34.1	78	28.0	4	13	248	0.00	29.575 
22:15	34.1	30.5	34.1	77	27.7	4	10	248	0.00	29.575 
22:20	34.1	34.1	34.1	77	27.7	3	9	248	0.00	29.574 
22:25	34.1	30.5	34.1	77	27.7	4	10	270	0.00	29.573 
22:30	34.1	34.1	34.1	78	28.0	3	7	248	0.00	29.573 
22:35	34.1	34.1	34.1	78	28.0	3	6	248	0.00	29.574 
22:40	34.1	34.1	34.1	77	27.7	3	8	270	0.00	29.573 
22:45	34.1	30.5	34.1	77	27.7	4	9	248	0.00	29.575 
22:50	34.1	34.1	34.1	77	27.7	3	7	248	0.00	29.576 
22:55	34.0	34.0	34.0	77	27.6	3	9	248	0.00	29.577 
23:00	34.0	34.0	34.0	78	27.9	2	5	248	0.00	29.581 
23:05	33.8	30.2	33.8	78	27.7	4	10	248	0.00	29.579 
23:10	33.8	30.2	33.8	79	28.0	4	7	248	0.00	29.580 
23:15	33.7	30.0	33.7	79	27.9	4	11	270	0.00	29.580 
23:20	33.5	33.5	33.5	79	27.7	3	5	248	0.00	29.580 
23:25	33.5	29.8	33.5	79	27.7	4	12	248	0.00	29.581 
23:30	33.5	33.5	33.5	78	27.4	3	7	248	0.00	29.581 
23:35	33.4	33.4	33.4	78	27.3	3	7	248	0.00	29.581 
23:40	33.4	33.4	33.4	78	27.3	3	7	248	0.00	29.584 
23:45	33.2	33.2	33.2	78	27.1	3	7	248	0.00	29.587 
23:50	33.2	33.2	33.2	78	27.1	3	8	248	0.00	29.588 
23:55	33.2	33.2	33.2	78	27.1	3	10	248	0.00	29.592 

CoCoRaHS
IN-AL-39
A2 Web Hosting
Creative Commons License
GoDaddy
Look for:

loaded 2017-10-18 07:32:18 • last modified 2010-11-18 10:43:29
Privacy PolicyDisclaimer
• wx.awcolley.com is powered by PmWiki v.2002016 •
• all content (unless otherwise noted) © 2017 A W Colley